M I D A S
Marine Information and Data Acquisition System
Tripno 2286 of the Zeeleeuw from 2012-04-10 06:58:58 to 2012-04-10 14:41:08
Back to CruiseResearch ActivitiesStationsMapUnderway DataData graphs

EquipmentUnitsComment
TimeDGPSUTC
LatitudeDGPSDM.mWGS84
LongitudeDGPSDM.mWGS84
TemperatureSBE03/SBE38deg celciusITS90
ConductivitySBE21S/mITS90
SalinitySBE21 Practical Salinity Units
ChlorophylAChelsea fluorimeterg/lCalibrated in Aceton
Missing or incorrect values are displayed as -999
Sea surface data collected by the RV Zeeleeuw from 2012-04-10 06:36:12 to 2012-04-10 14:52:26
Time Latitude Longitude Temperature Conductivity Salinity ChlorophylA
2012-04-10 06:37:17 51°13.635 2°56.016 15.2584 0.063889 0.319456 -2.458615
2012-04-10 06:38:17 51°13.635 2°56.016 15.262 0.063581 0.317877 -2.458615
2012-04-10 06:39:17 51°13.635 2°56.015 15.2687 0.063375 0.316827 -2.458615
2012-04-10 06:40:18 51°13.635 2°56.014 15.2737 0.063478 0.317355 -2.458615
2012-04-10 06:41:17 51°13.635 2°56.014 15.282 0.063786 0.318943 -2.458615
2012-04-10 06:42:18 51°13.635 2°56.014 15.2858 0.063478 0.31736 -2.458615
2012-04-10 06:43:17 51°13.635 2°56.016 15.2909 0.063581 0.317892 -2.458615
2012-04-10 06:44:18 51°13.636 2°56.017 15.296 0.063889 0.319481 -2.458615
2012-04-10 06:45:18 51°13.636 2°56.017 15.3046 0.063478 0.317375 -2.458615
2012-04-10 06:46:18 51°13.637 2°56.017 15.3076 0.063786 0.318958 -2.458615
2012-04-10 06:47:19 51°13.638 2°56.017 15.3145 0.063581 0.317907 -2.458615
2012-04-10 06:48:18 51°13.638 2°56.017 15.3135 0.063786 0.318973 -2.458615
2012-04-10 06:49:18 51°13.637 2°56.017 15.3199 0.063683 0.31845 -2.458615
2012-04-10 06:50:18 51°13.637 2°56.017 15.3232 0.063786 0.318988 -2.458615
2012-04-10 06:51:18 51°13.637 2°56.017 15.3296 0.063889 0.319526 -2.458615
2012-04-10 06:52:18 51°13.637 2°56.017 15.3437 0.063169 0.315846 -2.458615
2012-04-10 06:53:18 51°13.636 2°56.017 15.3468 0.063067 0.315333 -2.458615
2012-04-10 06:54:19 51°13.636 2°56.018 15.3522 0.062655 0.313238 -2.458615
2012-04-10 06:55:18 51°13.636 2°56.019 15.3634 0.062347 0.31167 -2.458615
2012-04-10 06:56:18 51°13.636 2°56.019 15.3612 0.063478 0.317499 -2.458615
2012-04-10 06:57:18 51°13.636 2°56.019 15.3676 0.06245 0.312237 -2.458615
2012-04-10 06:58:18 51°13.635 2°56.018 15.3894 0.061936 0.309619 -2.458615
2012-04-10 06:59:18 51°13.641 2°55.989 15.4353 0.063889 0.31968 -2.458615
2012-04-10 07:00:18 51°13.659 2°55.919 15.4113 0.065843 0.329751 -2.458615
2012-04-10 07:01:19 51°13.672 2°55.847 15.4398 0.063067 0.315496 -2.458615
2012-04-10 07:02:18 51°13.71 2°55.757 15.4005 0.062758 0.313952 -2.458615
2012-04-10 07:03:18 51°13.776 2°55.679 15.4288 0.06173 0.3087 -2.458615
2012-04-10 07:04:18 51°13.857 2°55.626 15.4264 0.061627 0.308201 -2.458615
2012-04-10 07:05:18 51°13.931 2°55.604 15.4828 0.062141 0.310863 -2.458615
2012-04-10 07:06:18 51°13.976 2°55.613 15.4514 0.060702 0.3035 -2.458615
2012-04-10 07:07:18 51°13.988 2°55.547 15.3126 0.054636 0.272504 -2.458615
2012-04-10 07:08:18 51°14.063 2°55.476 15.3862 0.057823 0.288835 -2.458615
2012-04-10 07:09:18 51°14.174 2°55.378 15.3499 0.054533 0.272034 -2.458615
2012-04-10 07:10:18 51°14.296 2°55.272 15.3695 0.053711 0.267865 -2.458615
2012-04-10 07:11:18 51°14.427 2°55.15 15.2897 0.052066 0.25951 -2.458615
2012-04-10 07:12:17 51°14.568 2°55.01 15.291 0.047233 0.234926 -2.458615
2012-04-10 07:13:15 51°14.67 2°54.775 15.0924 0.041579 0.206455 -2.458615
2012-04-10 07:14:15 51°14.621 2°54.478 14.9072 0.041682 0.207031 -2.458615
2012-04-10 07:15:15 51°14.502 2°54.198 14.8507 0.053094 0.265304 -2.458615
2012-04-10 07:16:15 51°14.386 2°53.909 14.9017 0.049701 0.248534 -2.458615
2012-04-10 07:17:15 51°14.254 2°53.64 14.8514 0.05587 0.280049 -2.458615
2012-04-10 07:18:15 51°14.135 2°53.36 14.8482 0.049084 0.245636 -2.458615
2012-04-10 07:19:15 51°14.006 2°53.094 14.7595 0.056692 0.284597 -2.458615
2012-04-10 07:20:15 51°13.888 2°52.816 14.7449 0.04857 0.243153 -2.458615
2012-04-10 07:21:15 51°13.763 2°52.547 14.763 0.044766 0.22393 -2.458615
2012-04-10 07:22:15 51°13.633 2°52.283 14.7454 0.051037 0.25602 -2.458615
2012-04-10 07:23:15 51°13.513 2°52.006 14.7372 0.052682 0.264423 -2.458615
2012-04-10 07:24:15 51°13.385 2°51.741 14.7293 0.066151 0.334079 -2.458615
2012-04-10 07:25:15 51°13.263 2°51.47 14.7245 0.055047 0.276685 -2.458615
2012-04-10 07:26:15 51°13.138 2°51.202 14.7132 0.053197 0.267355 -2.458615
2012-04-10 07:27:15 51°13.022 2°50.923 14.7324 0.058748 0.295901 -2.458615
2012-04-10 07:28:15 51°12.903 2°50.646 14.7393 0.059777 0.301219 -2.458615
2012-04-10 07:29:15 51°12.807 2°50.348 14.7546 0.052477 0.263753 -2.458615
2012-04-10 07:30:15 51°12.701 2°50.059 14.7274 0.054842 0.275832 -2.458615
2012-04-10 07:31:15 51°12.6 2°49.765 14.7492 0.059057 0.297624 -2.458615
2012-04-10 07:32:15 51°12.502 2°49.469 14.7643 0.050523 0.253731 -2.458615
2012-04-10 07:33:15 51°12.39 2°49.184 14.7395 0.045177 0.226488 -2.458615
2012-04-10 07:34:15 51°12.284 2°48.895 14.7734 0.054327 0.273395 -2.458615
2012-04-10 07:35:15 51°12.2 2°48.585 14.7536 0.050523 0.253854 -2.458615
2012-04-10 07:36:15 51°12.112 2°48.276 14.7753 0.051757 0.260236 -2.458615
2012-04-10 07:37:15 51°12.017 2°47.969 14.7915 0.054225 0.272892 -2.458615
2012-04-10 07:38:15 51°11.928 2°47.656 14.7988 0.054944 0.27663 -2.458615
2012-04-10 07:39:15 51°11.851 2°47.334 14.8156 0.053711 0.270393 -2.458615
2012-04-10 07:40:15 51°11.772 2°47.011 14.8155 0.051449 0.258751 -2.458615
2012-04-10 07:41:15 51°11.682 2°46.696 14.8024 0.052477 0.264034 -2.458615
2012-04-10 07:42:15 51°11.604 2°46.371 14.8266 0.047542 0.238746 -2.458615
2012-04-10 07:43:15 51°11.519 2°46.052 14.823 0.054533 0.274673 -2.458615
2012-04-10 07:44:15 51°11.446 2°45.726 14.8234 0.050832 0.255695 -2.458615
2012-04-10 07:45:15 51°11.369 2°45.401 14.8273 0.046514 0.233518 -2.458615
2012-04-10 07:46:15 51°11.274 2°45.089 14.8581 0.05844 0.294937 -2.458615
2012-04-10 07:47:15 51°11.201 2°44.764 14.8465 0.052066 0.262103 -2.458615
2012-04-10 07:48:15 51°11.138 2°44.432 14.8552 0.048467 0.243655 -2.458615
2012-04-10 07:49:15 51°11.06 2°44.109 14.855 0.052785 0.265769 -2.458615
2012-04-10 07:50:15 51°11.001 2°43.776 14.87 0.052888 0.266306 -2.458615
2012-04-10 07:51:15 51°10.928 2°43.452 14.8552 0.050935 0.256427 -2.458615
2012-04-10 07:52:15 51°10.86 2°43.122 14.8908 0.051243 0.257959 -2.458615
2012-04-10 07:53:15 51°10.799 2°42.79 14.8786 0.044869 0.22533 -2.458615
2012-04-10 07:54:15 51°10.723 2°42.464 14.9042 0.050626 0.254808 -2.458615
2012-04-10 07:55:15 51°10.658 2°42.133 14.9126 0.051757 0.260587 -2.458615
2012-04-10 07:56:15 51°10.583 2°41.807 14.9161 0.050935 0.256395 -2.458615
2012-04-10 07:57:15 51°10.519 2°41.475 14.924 0.051757 0.260673 -2.458615
2012-04-10 07:58:15 51°10.446 2°41.148 14.8997 0.059674 0.301583 -2.458615
2012-04-10 07:59:15 51°10.376 2°40.821 14.95 0.052682 0.26554 -2.458615
2012-04-10 08:00:15 51°10.305 2°40.495 14.9302 0.049392 0.248608 -2.458615
2012-04-10 08:01:15 51°10.224 2°40.172 14.9476 0.052168 0.26285 -2.458615
2012-04-10 08:02:15 51°10.157 2°39.841 14.9724 0.059365 0.300151 -2.458615
2012-04-10 08:03:15 51°10.106 2°39.501 14.9793 0.048262 0.24291 -2.458615
2012-04-10 08:04:15 51°10.045 2°39.166 14.9564 0.043224 0.21717 -2.458615
2012-04-10 08:05:15 51°9.968 2°38.836 15.0013 0.057309 0.289512 -2.458615
2012-04-10 08:06:15 51°9.923 2°38.493 15.0107 0.047028 0.236607 -2.458615
2012-04-10 08:07:15 51°9.872 2°38.151 14.9948 0.058337 0.294881 -2.458615
2012-04-10 08:08:15 51°9.839 2°37.803 15.0034 0.054636 0.275741 -2.458615
2012-04-10 08:09:15 51°9.819 2°37.453 15.0023 0.044149 0.221903 -2.458615
2012-04-10 08:10:15 51°9.781 2°37.105 15.0421 0.053916 0.272067 -2.458615
2012-04-10 08:11:15 51°9.761 2°36.751 15.063 0.047233 0.237745 -2.458615
2012-04-10 08:12:15 51°9.719 2°36.404 15.0451 0.047028 0.236729 -2.458615
2012-04-10 08:13:15 51°9.66 2°36.062 15.0668 0.049392 0.248818 -2.458615
2012-04-10 08:14:15 51°9.617 2°35.713 15.0915 0.046822 0.235676 -2.458615
2012-04-10 08:15:15 51°9.596 2°35.369 15.0814 0.063992 0.324471 -2.458615
2012-04-10 08:16:15 51°9.755 2°35.231 15.0974 0.055664 0.28116 -2.458615
2012-04-10 08:17:15 51°9.94 2°35.312 15.1156 0.050729 0.25574 -2.458615
2012-04-10 08:18:15 51°10.116 2°35.434 15.1211 0.049495 0.249502 -2.458615
2012-04-10 08:19:15 51°10.293 2°35.556 15.1151 0.051552 0.260053 -2.458615
2012-04-10 08:20:15 51°10.468 2°35.688 15.1343 0.05114 0.257912 -2.458615
2012-04-10 08:21:15 51°10.639 2°35.833 15.1421 0.065431 0.332028 -2.458615
2012-04-10 08:22:15 51°10.814 2°35.965 15.1567 0.050421 0.254318 -2.458615
2012-04-10 08:23:15 51°10.991 2°36.091 15.1868 0.050009 0.252255 -2.458615
2012-04-10 08:24:15 51°11.165 2°36.224 15.1813 0.057515 0.290958 -2.458615
2012-04-10 08:25:15 51°11.341 2°36.347 15.1775 0.054225 0.27396 -2.458615
2012-04-10 08:26:15 51°11.515 2°36.48 15.21 0.051037 0.257505 -2.458615
2012-04-10 08:27:15 51°11.686 2°36.618 15.2163 0.054533 0.275602 -2.458615
2012-04-10 08:28:15 51°11.848 2°36.774 15.2537 0.067488 0.343094 -2.458615
2012-04-10 08:29:15 51°11.973 2°36.997 15.2202 0.06245 0.316745 -2.458615
2012-04-10 08:30:15 51°12.105 2°37.21 15.2157 0.050523 0.254972 -2.458615
2012-04-10 08:31:15 51°12.251 2°37.402 15.2597 0.050215 0.253444 -2.458615
2012-04-10 08:32:15 51°12.415 2°37.555 15.2845 0.055253 0.279459 -2.458615
2012-04-10 08:33:15 51°12.583 2°37.698 15.3062 0.061216 0.310476 -2.458615
2012-04-10 08:34:15 51°12.74 2°37.871 15.2825 0.053299 0.26946 -2.458615
2012-04-10 08:35:15 51°12.893 2°38.051 15.2933 0.057206 0.289732 -2.458615
2012-04-10 08:36:15 51°13.046 2°38.233 15.296 0.069544 0.354053 -2.458615
2012-04-10 08:37:15 51°13.206 2°38.402 15.3319 0.143577 0.751769 -2.458615
2012-04-10 08:38:15 51°13.365 2°38.568 15.2947 0.083219 0.426316 -2.458615
2012-04-10 08:39:15 51°13.524 2°38.735 15.3385 0.067179 0.341852 -2.458615
2012-04-10 08:40:15 51°13.696 2°38.868 15.2899 0.048776 0.246266 -2.458615
2012-04-10 08:41:15 51°13.891 2°38.89 15.3086 0.046411 0.234116 -2.458615
2012-04-10 08:42:15 51°14.09 2°38.851 15.3203 0.045691 0.230386 -2.458615
2012-04-10 08:43:15 51°14.29 2°38.821 15.3095 0.050729 0.256373 -2.458615
2012-04-10 08:44:15 51°14.461 2°38.674 15.3165 0.043532 0.219392 -2.458615
2012-04-10 08:45:16 51°14.49 2°38.346 15.3024 0.045691 0.230491 -2.458615
2012-04-10 08:46:15 51°14.395 2°38.051 15.2859 0.058646 0.297393 -2.458615
2012-04-10 08:47:15 51°14.263 2°37.772 15.2607 0.06831 0.347804 -2.458615
2012-04-10 08:48:15 51°14.145 2°37.472 15.2563 0.056589 0.286743 -2.458615
2012-04-10 08:49:15 51°14.018 2°37.181 15.2436 0.065431 0.332883 -2.458615
2012-04-10 08:50:15 51°13.894 2°36.888 15.2442 0.06903 0.351792 -2.458615
2012-04-10 08:51:15 51°13.805 2°36.56 15.2443 0.059879 0.303896 -2.458615
2012-04-10 08:52:15 51°13.707 2°36.24 15.2309 0.052374 0.265054 -2.458615
2012-04-10 08:53:15 51°13.614 2°35.915 15.2381 0.054122 0.274075 -2.458615
2012-04-10 08:54:15 51°13.515 2°35.595 15.2531 0.057001 0.289038 -2.458615
2012-04-10 08:55:15 51°13.41 2°35.279 15.2499 0.058337 0.295955 -2.458615
2012-04-10 08:56:15 51°13.311 2°34.958 15.2702 0.051243 0.259225 -2.458615
2012-04-10 08:57:15 51°13.206 2°34.643 15.2881 0.050832 0.257122 -2.458615
2012-04-10 08:58:15 51°13.094 2°34.335 15.2937 0.069544 0.354615 -2.458615
2012-04-10 08:59:15 51°13.009 2°34.006 15.3055 0.049393 0.249798 -2.458615
2012-04-10 09:00:15 51°12.923 2°33.68 15.3163 0.048159 0.24337 -2.458615
2012-04-10 09:01:15 51°12.82 2°33.365 15.3369 0.056075 0.284302 -2.458615
2012-04-10 09:02:15 51°12.727 2°33.044 15.3123 0.054122 0.274174 -2.458615
2012-04-10 09:03:15 51°12.619 2°32.734 15.3252 0.055767 0.282765 -2.458615
2012-04-10 09:04:15 51°12.526 2°32.411 15.3466 0.049804 0.251891 -2.458615
2012-04-10 09:05:15 51°12.432 2°32.088 15.3421 0.05114 0.258849 -2.458615
2012-04-10 09:06:15 51°12.321 2°31.775 15.3536 0.05916 0.300429 -2.458615
2012-04-10 09:07:15 51°12.218 2°31.454 15.3505 0.056487 0.286533 -2.458615
2012-04-10 09:08:15 51°12.126 2°31.125 15.3773 0.045486 0.229714 -2.458615
2012-04-10 09:09:15 51°12.017 2°30.808 15.3665 0.052477 0.265796 -2.458615
2012-04-10 09:10:15 51°11.918 2°30.479 15.4009 0.046514 0.235052 -2.458615
2012-04-10 09:11:15 51°11.807 2°30.159 15.3942 0.053608 0.271668 -2.458615
2012-04-10 09:12:15 51°11.709 2°29.829 15.415 0.049804 0.251946 -2.458615
2012-04-10 09:13:15 51°11.605 2°29.502 15.4139 0.053505 0.271088 -2.458615
2012-04-10 09:14:15 51°11.498 2°29.176 15.4556 0.051963 0.263162 -2.458615
2012-04-10 09:15:15 51°11.39 2°28.851 15.3922 0.050626 0.256332 -2.458615
2012-04-10 09:16:15 51°11.3 2°28.514 8.4809 3.676595 32.729781 -2.458615
2012-04-10 09:17:15 51°11.292 2°28.148 8.3483 3.016928 27.837797 -2.458615
2012-04-10 09:18:15 51°11.34 2°27.796 8.302 2.931713 27.132308 -2.458615
2012-04-10 09:19:15 51°11.464 2°27.51 8.2775 2.788719 25.731242 -2.458615
2012-04-10 09:20:15 51°11.613 2°27.283 8.2615 2.76546 25.530606 -2.458615
2012-04-10 09:21:15 51°11.772 2°27.102 8.2619 2.721941 25.109568 -2.458615
2012-04-10 09:22:15 51°11.924 2°26.914 8.2683 2.688348 24.775951 -2.458615
2012-04-10 09:23:15 51°12.107 2°26.819 8.2598 2.691139 24.804238 -2.458615
2012-04-10 09:24:15 51°12.287 2°26.91 8.2724 2.612696 24.021157 -2.458615
2012-04-10 09:25:15 51°12.429 2°27.105 8.2464 2.599985 23.893407 -2.458615
2012-04-10 09:26:15 51°12.57 2°27.3 8.2475 2.600812 23.917831 -2.458615
2012-04-10 09:27:15 51°12.735 2°27.446 8.2657 2.590168 23.806625 -2.458615
2012-04-10 09:28:15 51°12.892 2°27.609 8.2632 2.566918 23.572626 -2.458615
2012-04-10 09:29:15 51°13.04 2°27.794 8.2376 2.588515 23.799783 -2.458615
2012-04-10 09:30:15 51°13.196 2°27.958 8.2367 2.599469 23.916634 -2.458615
2012-04-10 09:31:15 51°13.346 2°28.137 8.2395 2.558651 23.505692 -2.458615
2012-04-10 09:32:15 51°13.488 2°28.327 8.2394 2.587378 23.796925 -2.458615
2012-04-10 09:33:15 51°13.64 2°28.5 8.2411 2.586448 23.791225 -2.458615
2012-04-10 09:34:15 51°13.791 2°28.671 8.244 2.571258 23.634741 -2.458615
2012-04-10 09:35:15 51°13.938 2°28.856 8.2375 2.552141 23.441246 -2.458615
2012-04-10 09:36:15 51°14.085 2°29.037 8.2388 2.574048 23.663521 -2.458615
2012-04-10 09:37:15 51°14.236 2°29.211 8.2437 2.576218 23.687885 -2.458615
2012-04-10 09:38:15 51°14.379 2°29.404 8.2448 2.574254 23.665607 -2.458615
2012-04-10 09:39:15 51°14.531 2°29.58 8.247 2.564334 23.566082 -2.458615
2012-04-10 09:40:15 51°14.684 2°29.75 8.2389 2.589342 23.817995 -2.458615
2012-04-10 09:41:15 51°14.829 2°29.938 8.2432 2.545115 23.374028 -2.458615
2012-04-10 09:42:15 51°14.976 2°30.122 8.2458 2.542945 23.353964 -2.458615
2012-04-10 09:43:15 51°15.126 2°30.298 8.2458 2.579525 23.721282 -2.458615
2012-04-10 09:44:15 51°15.279 2°30.466 8.2384 2.555551 23.477462 -2.458615
2012-04-10 09:45:15 51°15.427 2°30.638 8.2379 2.583038 23.758002 -2.458615
2012-04-10 09:46:15 51°15.571 2°30.815 8.2297 2.556791 23.498488 -2.458615
2012-04-10 09:47:15 51°15.715 2°30.99 8.2092 2.599159 23.935808 -2.458615
2012-04-10 09:48:15 51°15.865 2°31.153 8.1888 2.573738 23.69229 -2.458615
2012-04-10 09:49:15 51°16.013 2°31.322 8.1735 2.601226 23.981579 -2.458615
2012-04-10 09:50:15 51°16.155 2°31.503 8.1684 2.574772 23.723038 -2.458615
2012-04-10 09:51:15 51°16.299 2°31.688 8.1718 2.570948 23.687425 -2.458615
2012-04-10 09:52:15 51°16.448 2°31.857 8.1713 2.565575 23.633061 -2.458615
2012-04-10 09:53:15 51°16.594 2°32.033 8.1588 2.53437 23.319448 -2.458615
2012-04-10 09:54:15 51°16.73 2°32.223 8.1541 2.564542 23.629355 -2.458615
2012-04-10 09:55:15 51°16.87 2°32.404 8.1506 2.552556 23.512992 -2.458615
2012-04-10 09:56:15 51°17.013 2°32.577 8.1408 2.534473 23.332605 -2.458615
2012-04-10 09:57:15 51°17.147 2°32.764 8.1462 2.53499 23.338433 -2.458615
2012-04-10 09:58:15 51°17.239 2°33.011 8.1443 2.532923 23.316942 -2.458615
2012-04-10 09:59:15 51°17.311 2°33.27 8.144 2.552142 23.510033 -2.458615
2012-04-10 10:00:15 51°17.387 2°33.528 8.1716 2.560925 23.595215 -2.458615
2012-04-10 10:01:15 51°17.467 2°33.783 8.1834 2.565782 23.629018 -2.458615
2012-04-10 10:02:15 51°17.547 2°34.035 8.1869 2.557308 23.537845 -2.458615
2012-04-10 10:03:15 51°17.618 2°34.292 8.2093 2.573945 23.702984 -2.458615
2012-04-10 10:04:15 51°17.633 2°34.58 8.2029 2.568055 23.631775 -2.458615
2012-04-10 10:05:15 51°17.654 2°34.859 8.2321 2.570741 23.659541 -2.458615
2012-04-10 10:06:15 51°17.66 2°35.14 8.2374 2.583245 23.774867 -2.458615
2012-04-10 10:07:15 51°17.592 2°35.405 8.2447 2.591615 23.846525 -2.458615
2012-04-10 10:08:15 51°17.476 2°35.643 8.2535 2.570328 23.629635 -2.458615
2012-04-10 10:09:15 51°17.353 2°35.88 8.241 2.578801 23.709678 -2.458615
2012-04-10 10:10:15 51°17.208 2°36.098 8.2693 2.579215 23.713852 -2.458615
2012-04-10 10:11:15 51°17.068 2°36.324 8.2693 2.576011 23.674764 -2.458615
2012-04-10 10:12:15 51°17.061 2°36.586 8.2683 2.568674 23.601942 -2.458615
2012-04-10 10:13:15 51°17.194 2°36.755 8.2844 2.604532 23.967203 -2.458615
2012-04-10 10:14:15 51°17.323 2°36.945 8.3166 2.596058 23.859933 -2.458615
2012-04-10 10:15:15 51°17.446 2°37.145 8.2741 2.582624 23.726181 -2.458615
2012-04-10 10:16:15 51°17.564 2°37.347 8.2765 2.557204 23.477122 -2.458615
2012-04-10 10:17:15 51°17.681 2°37.554 8.282 2.574668 23.654471 -2.458615
2012-04-10 10:18:15 51°17.808 2°37.745 8.2886 2.559994 23.501601 -2.458615
2012-04-10 10:19:15 51°17.935 2°37.935 8.2845 2.561028 23.509586 -2.458615
2012-04-10 10:20:15 51°18.057 2°38.136 8.2803 2.534369 23.24464 -2.458615
2012-04-10 10:21:15 51°18.175 2°38.341 8.2799 2.549558 23.400657 -2.458615
2012-04-10 10:22:15 51°18.297 2°38.537 8.29 2.547905 23.382787 -2.458615
2012-04-10 10:23:15 51°18.422 2°38.732 8.3106 2.537468 23.270436 -2.458615
2012-04-10 10:24:16 51°18.568 2°38.901 8.3187 2.543875 23.319868 -2.458615
2012-04-10 10:25:15 51°18.724 2°39.029 8.2942 2.555447 23.437588 -2.458615
2012-04-10 10:26:15 51°18.903 2°39.042 8.2815 2.548008 23.3802 -2.458615
2012-04-10 10:27:15 51°19.042 2°38.834 8.2885 2.551625 23.423302 -2.458615
2012-04-10 10:28:15 51°19.095 2°38.49 8.2967 2.545838 23.359548 -2.458615
2012-04-10 10:29:15 51°19.126 2°38.128 8.3138 2.544495 23.336359 -2.458615
2012-04-10 10:30:15 51°19.16 2°37.77 8.3346 2.565471 23.533689 -2.458615
2012-04-10 10:31:15 51°19.217 2°37.424 8.3306 2.552657 23.396192 -2.458615
2012-04-10 10:32:15 51°19.275 2°37.076 8.321 2.563817 23.512175 -2.458615
2012-04-10 10:33:15 51°19.321 2°36.721 8.31 2.546974 23.351069 -2.458615
2012-04-10 10:34:15 51°19.362 2°36.363 8.3022 2.555344 23.440787 -2.458615
2012-04-10 10:35:15 51°19.412 2°36.01 8.2998 2.552761 23.420217 -2.458615
2012-04-10 10:36:15 51°19.469 2°35.661 8.2957 2.548731 23.380835 -2.458615
2012-04-10 10:37:15 51°19.515 2°35.309 8.2584 2.554724 23.450909 -2.458615
2012-04-10 10:38:16 51°19.557 2°34.947 8.2323 2.539019 23.313774 -2.458615
2012-04-10 10:39:15 51°19.607 2°34.603 8.2128 2.514634 23.080068 -2.458615
2012-04-10 10:40:15 51°19.669 2°34.26 8.196 2.526103 23.211268 -2.458615
2012-04-10 10:41:15 51°19.745 2°33.929 8.1917 2.521557 23.17323 -2.458615
2012-04-10 10:42:15 51°19.814 2°33.59 8.1866 2.520111 23.161643 -2.458615
2012-04-10 10:43:15 51°19.87 2°33.242 8.1961 2.549455 23.460926 -2.458615
2012-04-10 10:44:15 51°19.935 2°32.896 8.2173 2.553279 23.495901 -2.458615
2012-04-10 10:45:15 51°20.004 2°32.551 8.2232 2.561545 23.558667 -2.458615
2012-04-10 10:46:15 51°20.065 2°32.202 8.2061 2.552452 23.472935 -2.458615
2012-04-10 10:47:15 51°20.118 2°31.847 8.1959 2.551935 23.476238 -2.458615
2012-04-10 10:48:15 51°20.179 2°31.497 8.1829 2.546975 23.431615 -2.458615
2012-04-10 10:49:15 51°20.252 2°31.153 8.172 2.542636 23.39871 -2.458615
2012-04-10 10:50:15 51°20.316 2°30.801 8.1568 2.52817 23.261063 -2.458615
2012-04-10 10:51:15 51°20.379 2°30.446 8.1406 2.525071 23.236999 -2.458615
2012-04-10 10:52:15 51°20.46 2°30.102 8.1355 2.518975 23.183257 -2.458615
2012-04-10 10:53:15 51°20.538 2°29.769 8.1369 2.527654 23.276394 -2.458615
2012-04-10 10:54:15 51°20.603 2°29.428 8.1382 2.516288 23.159131 -2.458615
2012-04-10 10:55:15 51°20.67 2°29.092 8.143 2.479403 22.783925 -2.458615
2012-04-10 10:56:15 51°20.744 2°28.758 8.1265 2.493351 22.926374 -2.458615
2012-04-10 10:57:15 51°20.839 2°28.446 8.1166 2.497794 22.981952 -2.458615
2012-04-10 10:58:15 51°20.952 2°28.155 8.1103 2.485396 22.861571 -2.458615
2012-04-10 10:59:15 51°21.058 2°27.849 8.1054 2.487256 22.885696 -2.458615
2012-04-10 11:00:15 51°21.168 2°27.541 8.1378 2.488599 22.894492 -2.458615
2012-04-10 11:01:15 51°21.263 2°27.225 8.1083 2.491182 22.909842 -2.458615
2012-04-10 11:02:15 51°21.361 2°26.915 8.0887 2.480127 22.816115 -2.458615
2012-04-10 11:03:15 51°21.471 2°26.622 8.0695 2.483743 22.861535 -2.458615
2012-04-10 11:04:15 51°21.573 2°26.313 8.0543 2.494075 22.982646 -2.458615
2012-04-10 11:05:16 51°21.677 2°25.998 8.0562 2.482917 22.871641 -2.458615
2012-04-10 11:06:15 51°21.777 2°25.689 8.0475 2.483537 22.882078 -2.458615
2012-04-10 11:07:15 51°21.884 2°25.384 8.0521 2.490149 22.951321 -2.458615
2012-04-10 11:08:15 51°21.99 2°25.077 8.0506 2.476615 22.816873 -2.458615
2012-04-10 11:09:15 51°22.107 2°24.781 8.0656 2.48519 22.897595 -2.458615
2012-04-10 11:10:15 51°22.269 2°24.573 8.0221 2.48488 22.889692 -2.458615
2012-04-10 11:11:15 51°22.43 2°24.372 7.9934 2.493352 23.007095 -2.458615
2012-04-10 11:12:15 51°22.59 2°24.166 7.9926 2.483641 22.921345 -2.458615
2012-04-10 11:13:15 51°22.753 2°23.972 7.9955 2.481987 22.903412 -2.458615
2012-04-10 11:14:15 51°22.912 2°23.779 8.0007 2.475995 22.838582 -2.458615
2012-04-10 11:15:15 51°23.073 2°23.602 8.0012 2.484984 22.930157 -2.458615
2012-04-10 11:16:16 51°23.234 2°23.42 7.9947 2.48395 22.920894 -2.458615
2012-04-10 11:17:15 51°23.393 2°23.255 7.9934 2.481161 22.893849 -2.458615
2012-04-10 11:18:15 51°23.557 2°23.099 7.9986 2.492939 23.011916 -2.458615
2012-04-10 11:19:15 51°23.723 2°22.947 7.9987 2.481781 22.900125 -2.458615
2012-04-10 11:20:15 51°23.889 2°22.79 7.9913 2.485913 22.94017 -2.458615
2012-04-10 11:21:15 51°24.059 2°22.638 8.0031 2.496658 23.050194 -2.458615
2012-04-10 11:22:15 51°24.227 2°22.482 8.0062 2.494179 23.023873 -2.458615
2012-04-10 11:23:15 51°24.395 2°22.323 8.0038 2.48457 22.92358 -2.458615
2012-04-10 11:24:15 51°24.563 2°22.171 8.0012 2.48426 22.921639 -2.458615
2012-04-10 11:25:15 51°24.729 2°22.013 8.0014 2.480954 22.886979 -2.458615
2012-04-10 11:26:15 51°24.901 2°21.956 8.0086 2.489633 22.968841 -2.458615
2012-04-10 11:27:15 51°25.059 2°22.07 8.0052 2.499241 23.06613 -2.458615
2012-04-10 11:28:15 51°25.209 2°22.204 8.0119 2.50668 23.142692 -2.458615
2012-04-10 11:29:15 51°25.357 2°22.356 8.0052 2.509263 23.16826 -2.458615
2012-04-10 11:30:15 51°25.506 2°22.503 8.0156 2.509573 23.172006 -2.458615
2012-04-10 11:31:15 51°25.654 2°22.645 8.0026 2.51133 23.191621 -2.458615
2012-04-10 11:32:15 51°25.807 2°22.781 8.0107 2.51009 23.180869 -2.458615
2012-04-10 11:33:15 51°25.959 2°22.927 8.0076 2.505854 23.138542 -2.458615
2012-04-10 11:34:15 51°26.109 2°23.075 8.0129 2.513913 23.219619 -2.458615
2012-04-10 11:35:15 51°26.256 2°23.227 8.0025 2.514119 23.220502 -2.458615
2012-04-10 11:36:15 51°26.408 2°23.376 8.0045 2.517322 23.250547 -2.458615
2012-04-10 11:37:15 51°26.556 2°23.53 8.0057 2.509987 23.178612 -2.458615
2012-04-10 11:38:15 51°26.704 2°23.683 8.0114 2.511536 23.196741 -2.458615
2012-04-10 11:39:15 51°26.85 2°23.833 8.0059 2.517012 23.251044 -2.458615
2012-04-10 11:40:15 51°26.998 2°23.99 8.0107 2.513913 23.215379 -2.458615
2012-04-10 11:41:15 51°27.148 2°24.139 8.0075 2.515566 23.231529 -2.458615
2012-04-10 11:42:15 51°27.297 2°24.288 8.0073 2.512363 23.200277 -2.458615
2012-04-10 11:43:15 51°27.444 2°24.448 8.0121 2.518562 23.258263 -2.458615
2012-04-10 11:44:15 51°27.586 2°24.616 8.0196 2.515773 23.229988 -2.458615
2012-04-10 11:45:15 51°27.624 2°24.893 8.0636 2.528171 23.343508 -2.458615
2012-04-10 11:46:15 51°27.508 2°25.151 8.0269 2.522488 23.273178 -2.458615
2012-04-10 11:47:15 51°27.351 2°25.369 8.0076 2.518046 23.247569 -2.458615
2012-04-10 11:48:16 51°27.187 2°25.587 8.0242 2.505337 23.124257 -2.458615
2012-04-10 11:49:15 51°27.031 2°25.8 8.0115 2.493042 22.996758 -2.458615
2012-04-10 11:50:15 51°26.865 2°26.004 8.0172 2.496555 23.03472 -2.458615
2012-04-10 11:51:15 51°26.703 2°26.211 8.0095 2.485603 22.922078 -2.458615
2012-04-10 11:52:15 51°26.543 2°26.42 8.0144 2.502444 23.094353 -2.458615
2012-04-10 11:53:15 51°26.38 2°26.625 8.0134 2.489633 22.962851 -2.458615
2012-04-10 11:54:15 51°26.218 2°26.83 8.0122 2.499551 23.060847 -2.458615
2012-04-10 11:55:15 51°26.059 2°27.037 8.0153 2.439733 22.460844 -2.458615
2012-04-10 11:56:15 51°25.901 2°27.244 8.0081 2.441903 22.481574 -2.458615
2012-04-10 11:57:15 51°25.757 2°27.47 8.0335 2.441489 22.479747 -2.458615
2012-04-10 11:58:15 51°25.637 2°27.726 8.0325 2.444175 22.492205 -2.458615
2012-04-10 11:59:15 51°25.573 2°28.008 8.0264 2.439526 22.448221 -2.458615
2012-04-10 12:00:15 51°25.683 2°28.236 8.0338 2.440043 22.459287 -2.458615
2012-04-10 12:01:15 51°25.856 2°28.375 8.0276 2.43932 22.446721 -2.458615
2012-04-10 12:02:15 51°26.036 2°28.5 8.0212 2.445828 22.515341 -2.458615
2012-04-10 12:03:15 51°26.21 2°28.641 8.0313 2.430746 22.36255 -2.458615
2012-04-10 12:04:15 51°26.377 2°28.798 8.0316 2.444898 22.497744 -2.458615
2012-04-10 12:05:15 51°26.544 2°28.957 8.0325 2.446138 22.512014 -2.458615
2012-04-10 12:06:15 51°26.712 2°29.111 8.0309 2.443762 22.491551 -2.458615
2012-04-10 12:07:15 51°26.882 2°29.262 8.037 2.431469 22.366929 -2.458615
2012-04-10 12:08:16 51°27.055 2°29.409 8.0366 2.434361 22.393188 -2.458615
2012-04-10 12:09:15 51°27.223 2°29.543 8.0326 2.445931 22.509342 -2.458615
2012-04-10 12:10:15 51°27.392 2°29.688 8.0349 2.439526 22.445296 -2.458615
2012-04-10 12:11:15 51°27.564 2°29.834 8.0351 2.440353 22.452464 -2.458615
2012-04-10 12:12:15 51°27.733 2°29.979 8.0234 2.444382 22.496635 -2.458615
2012-04-10 12:13:15 51°27.9 2°30.127 8.0117 2.436324 22.421168 -2.458615
2012-04-10 12:14:15 51°28.069 2°30.277 8.0107 2.445105 22.515671 -2.458615
2012-04-10 12:15:15 51°28.237 2°30.429 8.0025 2.442006 22.489068 -2.458615
2012-04-10 12:16:15 51°28.402 2°30.587 7.993 2.429816 22.367166 -2.458615
2012-04-10 12:17:15 51°28.572 2°30.741 7.9818 2.430642 22.37901 -2.458615
2012-04-10 12:18:15 51°28.747 2°30.879 7.9823 2.44087 22.491674 -2.458615
2012-04-10 12:19:15 51°28.921 2°31.019 7.9865 2.435498 22.435057 -2.458615
2012-04-10 12:20:15 51°29.094 2°31.162 7.9832 2.436944 22.452597 -2.458615
2012-04-10 12:21:15 51°29.262 2°31.313 7.9756 2.434362 22.426506 -2.458615
2012-04-10 12:22:15 51°29.434 2°31.459 7.9807 2.430849 22.392782 -2.458615
2012-04-10 12:23:15 51°29.608 2°31.602 7.9792 2.436531 22.449008 -2.458615
2012-04-10 12:24:15 51°29.776 2°31.759 7.9708 2.433328 22.416656 -2.458615
2012-04-10 12:25:15 51°29.949 2°31.898 7.9773 2.439527 22.481625 -2.458615
2012-04-10 12:26:15 51°30.121 2°32.038 7.9889 2.444279 22.527302 -2.458615
2012-04-10 12:27:15 51°30.29 2°32.187 7.9761 2.434052 22.419864 -2.458615
2012-04-10 12:27:30 51°30.333 2°32.223 7.9748 2.43963 22.476214 -2.458615
2012-04-10 12:28:30 51°30.502 2°32.373 7.9772 2.438804 22.473731 -2.458615
2012-04-10 12:29:30 51°30.675 2°32.517 7.9827 2.436118 22.444833 -2.458615
2012-04-10 12:30:30 51°30.848 2°32.654 7.9802 2.443556 22.515291 -2.458615
2012-04-10 12:31:30 51°31.021 2°32.796 7.9879 2.432709 22.40864 -2.458615
2012-04-10 12:32:30 51°31.19 2°32.951 7.9754 2.432089 22.400625 -2.458615
2012-04-10 12:33:30 51°31.367 2°33.089 7.9736 2.439217 22.480841 -2.458615
2012-04-10 12:34:30 51°31.542 2°33.227 7.9729 2.428267 22.366697 -2.458615
2012-04-10 12:35:30 51°31.72 2°33.356 7.9834 2.423721 22.323712 -2.458615
2012-04-10 12:36:30 51°31.899 2°33.482 7.9827 2.439423 22.467677 -2.458615
2012-04-10 12:37:30 51°32.076 2°33.621 7.9827 2.445932 22.541655 -2.458615
2012-04-10 12:38:30 51°32.249 2°33.756 7.9744 2.438597 22.466364 -2.458615
2012-04-10 12:39:30 51°32.424 2°33.903 7.9694 2.441386 22.496894 -2.458615
2012-04-10 12:40:30 51°32.602 2°34.036 7.975 2.439114 22.480384 -2.458615
2012-04-10 12:41:30 51°32.778 2°34.173 7.9819 2.448515 22.570706 -2.458615
2012-04-10 12:42:30 51°32.958 2°34.304 7.9767 2.449134 22.576972 -2.458615
2012-04-10 12:43:30 51°33.134 2°34.448 7.9781 2.422585 22.307577 -2.458615
2012-04-10 12:44:30 51°33.308 2°34.583 7.9835 2.414631 22.22381 -2.458615
2012-04-10 12:45:30 51°33.483 2°34.727 7.9844 2.409879 22.174713 -2.458615
2012-04-10 12:46:30 51°33.657 2°34.864 7.9961 2.407503 22.148437 -2.458615
2012-04-10 12:47:30 51°33.831 2°35.011 8.0101 2.40678 22.144612 -2.458615
2012-04-10 12:48:30 51°33.893 2°35.289 8.0042 2.407813 22.138276 -2.458615
2012-04-10 12:49:30 51°33.763 2°35.541 7.9902 2.403061 22.089238 -2.458615
2012-04-10 12:50:30 51°33.591 2°35.75 7.9887 2.406263 22.134204 -2.458615
2012-04-10 12:51:30 51°33.418 2°35.954 7.9911 2.399239 22.062238 -2.458615
2012-04-10 12:52:30 51°33.246 2°36.151 8.0094 2.390665 21.970685 -2.458615
2012-04-10 12:53:30 51°33.078 2°36.355 8.0214 2.429816 22.359583 -2.458615
2012-04-10 12:54:30 51°32.906 2°36.549 8.011 2.431159 22.3708 -2.458615
2012-04-10 12:55:30 51°32.734 2°36.745 8.0024 2.419899 22.261288 -2.458615
2012-04-10 12:56:30 51°32.562 2°36.939 7.993 2.413907 22.205503 -2.458615
2012-04-10 12:57:30 51°32.39 2°37.135 7.9815 2.418349 22.252625 -2.458615
2012-04-10 12:58:30 51°32.214 2°37.325 7.9969 2.423824 22.315432 -2.458615
2012-04-10 12:59:30 51°32.034 2°37.506 7.9895 2.42589 22.333957 -2.458615
2012-04-10 13:00:30 51°31.86 2°37.704 7.9809 2.424444 22.323437 -2.458615
2012-04-10 13:01:30 51°31.682 2°37.899 7.9774 2.420415 22.282188 -2.458615
2012-04-10 13:02:30 51°31.5 2°38.084 7.981 2.419796 22.279421 -2.458615
2012-04-10 13:03:30 51°31.312 2°38.244 7.9748 2.424651 22.327271 -2.458615
2012-04-10 13:04:30 51°31.124 2°38.406 7.9522 2.42806 22.368115 -2.458615
2012-04-10 13:05:30 51°30.94 2°38.581 7.9348 2.416904 22.269993 -2.458615
2012-04-10 13:06:30 51°30.755 2°38.751 7.9268 2.421449 22.322913 -2.458615
2012-04-10 13:07:30 51°30.57 2°38.916 7.926 2.424961 22.362508 -2.458615
2012-04-10 13:08:30 51°30.395 2°39.108 7.9277 2.424341 22.359748 -2.458615
2012-04-10 13:09:30 51°30.222 2°39.299 7.93 2.424445 22.35787 -2.458615
2012-04-10 13:10:30 51°30.049 2°39.483 7.9297 2.422379 22.33231 -2.458615
2012-04-10 13:11:30 51°29.871 2°39.658 7.9163 2.425994 22.377048 -2.458615
2012-04-10 13:12:30 51°29.699 2°39.846 7.9139 2.420726 22.33195 -2.458615
2012-04-10 13:13:30 51°29.526 2°40.035 7.9109 2.404198 22.162533 -2.458615
2012-04-10 13:14:30 51°29.351 2°40.22 7.912 2.398206 22.098535 -2.458615
2012-04-10 13:15:30 51°29.18 2°40.414 7.9169 2.400892 22.127977 -2.458615
2012-04-10 13:16:30 51°29.005 2°40.605 7.9032 2.406987 22.191298 -2.458615
2012-04-10 13:17:30 51°28.835 2°40.806 7.8928 2.355753 21.681572 -2.458615
2012-04-10 13:18:30 51°28.661 2°40.998 7.8954 2.345734 21.583967 -2.458615
2012-04-10 13:19:30 51°28.49 2°41.199 7.8797 2.338401 21.513445 -2.458615
2012-04-10 13:20:30 51°28.313 2°41.388 7.8634 2.337575 21.511313 -2.458615
2012-04-10 13:21:30 51°28.14 2°41.586 7.8554 2.343462 21.578573 -2.458615
2012-04-10 13:22:30 51°27.968 2°41.787 7.8452 2.337782 21.530308 -2.458615
2012-04-10 13:23:30 51°27.798 2°41.991 7.8363 2.346561 21.624557 -2.458615
2012-04-10 13:24:30 51°27.628 2°42.19 7.8394 2.340984 21.570524 -2.458615
2012-04-10 13:25:30 51°27.458 2°42.389 7.8463 2.337162 21.5297 -2.458615
2012-04-10 13:26:30 51°27.284 2°42.582 7.8615 2.337678 21.528138 -2.458615
2012-04-10 13:27:30 51°27.116 2°42.782 7.8796 2.344392 21.587949 -2.458615
2012-04-10 13:28:30 51°26.938 2°42.958 7.8779 2.334786 21.483769 -2.458615
2012-04-10 13:29:30 51°26.762 2°43.135 7.8965 2.339434 21.526671 -2.458615
2012-04-10 13:30:30 51°26.592 2°43.327 7.8759 2.343255 21.560676 -2.458615
2012-04-10 13:31:30 51°26.418 2°43.501 7.9231 2.340157 21.533394 -2.458615
2012-04-10 13:32:30 51°26.247 2°43.682 7.9207 2.342326 21.531584 -2.458615
2012-04-10 13:33:30 51°26.078 2°43.869 7.9425 2.34687 21.571145 -2.458615
2012-04-10 13:34:30 51°25.903 2°44.037 7.9345 2.337368 21.472689 -2.458615
2012-04-10 13:35:30 51°25.731 2°44.214 7.9516 2.337781 21.47853 -2.458615
2012-04-10 13:36:30 51°25.557 2°44.392 7.9507 2.340053 21.490165 -2.458615
2012-04-10 13:37:30 51°25.384 2°44.573 7.9406 2.343875 21.534235 -2.458615
2012-04-10 13:38:30 51°25.214 2°44.761 7.9402 2.34026 21.499543 -2.458615
2012-04-10 13:39:30 51°25.037 2°44.934 7.9413 2.347077 21.570406 -2.458615
2012-04-10 13:40:30 51°24.861 2°45.107 7.9378 2.343152 21.53146 -2.458615
2012-04-10 13:41:30 51°24.69 2°45.29 7.9406 2.34625 21.564342 -2.458615
2012-04-10 13:42:30 51°24.518 2°45.47 7.9519 2.343358 21.532977 -2.458615
2012-04-10 13:43:30 51°24.35 2°45.645 8.107 2.342532 21.509483 -2.458615
2012-04-10 13:44:30 51°24.182 2°45.823 8.1724 2.341808 21.411098 -2.458615
2012-04-10 13:45:30 51°24.014 2°45.999 8.1555 2.335404 21.319276 -2.458615
2012-04-10 13:46:30 51°23.847 2°46.173 8.1525 2.337883 21.351265 -2.458615
2012-04-10 13:47:30 51°23.682 2°46.353 8.1417 2.336643 21.341638 -2.458615
2012-04-10 13:48:30 51°23.519 2°46.541 8.1304 2.331789 21.29972 -2.458615
2012-04-10 13:49:30 51°23.352 2°46.721 8.1161 2.327864 21.270404 -2.458615
2012-04-10 13:50:30 51°23.182 2°46.899 8.114 2.329827 21.290043 -2.458615
2012-04-10 13:51:30 51°23.017 2°47.094 8.1195 2.324972 21.242019 -2.458615
2012-04-10 13:52:30 51°22.846 2°47.276 8.1131 2.324146 21.234856 -2.458615
2012-04-10 13:53:30 51°22.677 2°47.462 8.1101 2.31578 21.151719 -2.458615
2012-04-10 13:54:30 51°22.506 2°47.65 8.1512 2.314335 21.142753 -2.458615
2012-04-10 13:55:30 51°22.335 2°47.841 8.1946 2.313405 21.095616 -2.458615
2012-04-10 13:56:30 51°22.158 2°48.016 8.2282 2.317845 21.117502 -2.458615
2012-04-10 13:57:30 51°21.984 2°48.206 8.2381 2.311752 21.036549 -2.458615
2012-04-10 13:58:30 51°21.815 2°48.411 8.2644 2.313714 21.040852 -2.458615
2012-04-10 13:59:30 51°21.641 2°48.604 8.2607 2.308963 20.98975 -2.458615
2012-04-10 14:00:30 51°21.467 2°48.789 8.3178 2.318878 21.09119 -2.458615
2012-04-10 14:01:30 51°21.298 2°48.98 8.3815 2.315366 21.007867 -2.458615
2012-04-10 14:02:30 51°21.125 2°49.154 8.4042 2.314332 20.968398 -2.458615
2012-04-10 14:03:30 51°20.951 2°49.317 8.4355 2.311027 20.924834 -2.458615
2012-04-10 14:04:30 51°20.781 2°49.489 8.5375 2.321768 21.01242 -2.458615
2012-04-10 14:05:30 51°20.609 2°49.639 8.5567 2.308548 20.827362 -2.458615
2012-04-10 14:06:30 51°20.437 2°49.796 8.5075 2.30958 20.830087 -2.458615
2012-04-10 14:07:30 51°20.265 2°49.962 8.4848 2.301422 20.773496 -2.458615
2012-04-10 14:08:30 51°20.095 2°50.135 8.4844 2.3039 20.80707 -2.458615
2012-04-10 14:09:30 51°19.92 2°50.303 8.4707 2.300905 20.779593 -2.458615
2012-04-10 14:10:30 51°19.742 2°50.454 8.4678 2.296671 20.746255 -2.458615
2012-04-10 14:11:30 51°19.566 2°50.623 8.4324 2.28624 20.642072 -2.458615
2012-04-10 14:12:30 51°19.391 2°50.798 8.4129 2.295949 20.758307 -2.458615
2012-04-10 14:13:30 51°19.212 2°50.95 8.4205 2.291095 20.733199 -2.458615
2012-04-10 14:14:30 51°19.029 2°51.083 8.4581 2.293573 20.747604 -2.458615
2012-04-10 14:15:30 51°18.85 2°51.236 8.4976 2.279321 20.585334 -2.458615
2012-04-10 14:16:30 51°18.679 2°51.417 8.548 2.276636 20.536095 -2.458615
2012-04-10 14:17:30 51°18.498 2°51.537 8.6135 2.292953 20.670729 -2.458615
2012-04-10 14:18:30 51°18.315 2°51.635 8.6549 2.28469 20.55286 -2.458615
2012-04-10 14:19:30 51°18.137 2°51.761 8.6429 2.275086 20.44262 -2.458615
2012-04-10 14:20:30 51°17.957 2°51.884 8.6531 2.262384 20.315666 -2.458615
2012-04-10 14:21:30 51°17.779 2°52.007 8.627 2.269819 20.395524 -2.458615
2012-04-10 14:22:30 51°17.598 2°52.117 8.6123 2.26765 20.37472 -2.458615
2012-04-10 14:23:30 51°17.417 2°52.222 8.6555 2.270852 20.406723 -2.458615
2012-04-10 14:24:30 51°17.237 2°52.341 8.6721 2.262693 20.317153 -2.458615
2012-04-10 14:25:30 51°17.06 2°52.475 8.6549 2.264965 20.332203 -2.458615
2012-04-10 14:26:30 51°16.885 2°52.625 8.6781 2.265172 20.32852 -2.458615
2012-04-10 14:27:30 51°16.714 2°52.795 8.7022 2.271264 20.37848 -2.458615
2012-04-10 14:28:30 51°16.535 2°52.938 8.719 2.269922 20.359062 -2.458615
2012-04-10 14:29:30 51°16.354 2°53.068 8.7443 2.268166 20.326789 -2.458615
2012-04-10 14:30:30 51°16.178 2°53.222 8.7684 2.274569 20.380763 -2.458615
2012-04-10 14:31:30 51°16.003 2°53.376 8.8315 2.27808 20.392855 -2.458615
2012-04-10 14:32:30 51°15.828 2°53.534 8.8731 2.27085 20.299309 -2.458615
2012-04-10 14:33:30 51°15.658 2°53.712 8.9063 2.266513 20.226036 -2.458615
2012-04-10 14:34:30 51°15.486 2°53.881 8.9321 2.271986 20.254826 -2.458615
2012-04-10 14:35:30 51°15.312 2°54.039 8.9043 2.27622 20.298714 -2.458615
2012-04-10 14:36:30 51°15.154 2°54.243 8.9384 2.276426 20.30073 -2.458615
2012-04-10 14:37:30 51°15.003 2°54.471 8.9699 2.280144 20.328262 -2.458615
2012-04-10 14:38:30 51°14.852 2°54.69 9.0128 2.277252 20.280526 -2.458615
2012-04-10 14:39:30 51°14.693 2°54.9 9.0112 2.268887 20.177566 -2.458615
2012-04-10 14:40:30 51°14.528 2°55.078 8.9938 2.283551 20.31521 -2.458615
2012-04-10 14:41:32 51°14.356 2°55.214 9.2538 2.270849 20.18595 -2.458615
2012-04-10 14:42:34 51°14.226 2°55.333 9.3305 2.253911 19.884709 -2.458615
2012-04-10 14:43:33 51°14.108 2°55.425 9.2864 2.204242 19.396157 -2.458615
2012-04-10 14:44:33 51°13.995 2°55.508 9.2832 2.190612 19.273256 -2.458615
2012-04-10 14:45:32 51°13.893 2°55.58 9.2948 2.178945 19.156251 -2.458615
2012-04-10 14:46:32 51°13.804 2°55.652 9.35 2.163457 18.990806 -2.458615
2012-04-10 14:47:32 51°13.733 2°55.746 9.6277 2.153132 18.873348 -2.458615
2012-04-10 14:48:33 51°13.686 2°55.838 9.7329 2.155404 18.895582 -2.458615
2012-04-10 14:49:33 51°13.651 2°55.922 9.7678 2.13682 18.717607 -2.458615
2012-04-10 14:50:33 51°13.637 2°55.998 9.8336 2.123915 18.592265 -2.458615
2012-04-10 14:51:33 51°13.636 2°56.019 9.8965 2.113384 18.486034 -2.458615